sensor_id;sensor_type;location;lat;lon;timestamp;P1;durP1;ratioP1;P2;durP2;ratioP2
21890;SDS011;11110;52.386;16.940;2023-04-15T00:00:56;158.00;;;73.97;;
21890;SDS011;11110;52.386;16.940;2023-04-15T00:03:25;138.27;;;70.73;;
21890;SDS011;11110;52.386;16.940;2023-04-15T00:05:54;139.00;;;70.53;;
21890;SDS011;11110;52.386;16.940;2023-04-15T00:08:26;145.10;;;70.97;;
21890;SDS011;11110;52.386;16.940;2023-04-15T00:10:56;146.20;;;71.33;;
21890;SDS011;11110;52.386;16.940;2023-04-15T00:13:28;152.20;;;72.20;;
21890;SDS011;11110;52.386;16.940;2023-04-15T00:15:57;149.20;;;72.50;;
21890;SDS011;11110;52.386;16.940;2023-04-15T00:18:25;142.00;;;70.63;;
21890;SDS011;11110;52.386;16.940;2023-04-15T00:20:55;145.50;;;71.60;;
21890;SDS011;11110;52.386;16.940;2023-04-15T00:23:23;147.90;;;72.13;;
21890;SDS011;11110;52.386;16.940;2023-04-15T00:25:53;145.60;;;71.73;;
21890;SDS011;11110;52.386;16.940;2023-04-15T00:28:22;145.47;;;71.77;;
21890;SDS011;11110;52.386;16.940;2023-04-15T00:30:51;147.73;;;72.53;;
21890;SDS011;11110;52.386;16.940;2023-04-15T00:33:19;141.83;;;70.57;;
21890;SDS011;11110;52.386;16.940;2023-04-15T00:35:47;137.20;;;69.83;;
21890;SDS011;11110;52.386;16.940;2023-04-15T00:38:16;135.10;;;69.33;;
21890;SDS011;11110;52.386;16.940;2023-04-15T00:40:45;145.50;;;71.10;;
21890;SDS011;11110;52.386;16.940;2023-04-15T00:43:16;144.40;;;71.83;;
21890;SDS011;11110;52.386;16.940;2023-04-15T00:45:45;142.93;;;71.50;;
21890;SDS011;11110;52.386;16.940;2023-04-15T00:48:13;159.90;;;75.63;;
21890;SDS011;11110;52.386;16.940;2023-04-15T00:50:43;129.13;;;71.17;;
21890;SDS011;11110;52.386;16.940;2023-04-15T00:53:11;147.87;;;73.33;;
21890;SDS011;11110;52.386;16.940;2023-04-15T00:55:40;148.13;;;75.20;;
21890;SDS011;11110;52.386;16.940;2023-04-15T00:58:09;145.10;;;75.60;;
21890;SDS011;11110;52.386;16.940;2023-04-15T01:00:39;142.43;;;74.33;;
21890;SDS011;11110;52.386;16.940;2023-04-15T01:03:07;146.47;;;74.83;;
21890;SDS011;11110;52.386;16.940;2023-04-15T01:05:36;143.63;;;74.10;;
21890;SDS011;11110;52.386;16.940;2023-04-15T01:08:05;135.97;;;72.30;;
21890;SDS011;11110;52.386;16.940;2023-04-15T01:10:34;142.53;;;73.60;;
21890;SDS011;11110;52.386;16.940;2023-04-15T01:13:03;147.87;;;76.63;;
21890;SDS011;11110;52.386;16.940;2023-04-15T01:15:33;149.03;;;76.07;;
21890;SDS011;11110;52.386;16.940;2023-04-15T01:18:04;144.43;;;75.50;;
21890;SDS011;11110;52.386;16.940;2023-04-15T01:20:36;149.43;;;76.27;;
21890;SDS011;11110;52.386;16.940;2023-04-15T01:23:05;143.60;;;75.00;;
21890;SDS011;11110;52.386;16.940;2023-04-15T01:25:35;148.63;;;77.37;;
21890;SDS011;11110;52.386;16.940;2023-04-15T01:28:04;152.00;;;81.17;;
21890;SDS011;11110;52.386;16.940;2023-04-15T01:30:32;142.97;;;74.17;;
21890;SDS011;11110;52.386;16.940;2023-04-15T01:33:01;141.27;;;75.53;;
21890;SDS011;11110;52.386;16.940;2023-04-15T01:35:30;145.37;;;76.43;;
21890;SDS011;11110;52.386;16.940;2023-04-15T01:38:00;133.73;;;72.33;;
21890;SDS011;11110;52.386;16.940;2023-04-15T01:40:33;142.40;;;73.17;;
21890;SDS011;11110;52.386;16.940;2023-04-15T01:43:03;148.23;;;74.33;;
21890;SDS011;11110;52.386;16.940;2023-04-15T01:45:32;142.13;;;71.77;;
21890;SDS011;11110;52.386;16.940;2023-04-15T01:48:03;147.27;;;73.80;;
21890;SDS011;11110;52.386;16.940;2023-04-15T01:50:31;148.47;;;74.43;;
21890;SDS011;11110;52.386;16.940;2023-04-15T01:53:02;147.73;;;75.27;;
21890;SDS011;11110;52.386;16.940;2023-04-15T01:55:31;149.63;;;75.90;;
21890;SDS011;11110;52.386;16.940;2023-04-15T01:58:00;144.53;;;72.87;;
21890;SDS011;11110;52.386;16.940;2023-04-15T02:00:29;142.17;;;73.33;;
21890;SDS011;11110;52.386;16.940;2023-04-15T02:02:58;145.73;;;74.20;;
21890;SDS011;11110;52.386;16.940;2023-04-15T02:05:27;141.00;;;74.93;;
21890;SDS011;11110;52.386;16.940;2023-04-15T02:07:56;150.03;;;75.87;;
21890;SDS011;11110;52.386;16.940;2023-04-15T02:10:24;143.00;;;77.33;;
21890;SDS011;11110;52.386;16.940;2023-04-15T02:12:53;151.63;;;76.77;;
21890;SDS011;11110;52.386;16.940;2023-04-15T02:15:23;141.60;;;74.77;;
21890;SDS011;11110;52.386;16.940;2023-04-15T02:17:51;143.47;;;75.30;;
21890;SDS011;11110;52.386;16.940;2023-04-15T02:20:21;146.73;;;75.00;;
21890;SDS011;11110;52.386;16.940;2023-04-15T02:22:49;140.00;;;74.47;;
21890;SDS011;11110;52.386;16.940;2023-04-15T02:25:18;135.77;;;74.67;;
21890;SDS011;11110;52.386;16.940;2023-04-15T02:27:47;140.10;;;74.63;;
21890;SDS011;11110;52.386;16.940;2023-04-15T02:30:16;135.77;;;72.17;;
21890;SDS011;11110;52.386;16.940;2023-04-15T02:32:46;146.93;;;77.53;;
21890;SDS011;11110;52.386;16.940;2023-04-15T02:35:14;135.03;;;74.17;;
21890;SDS011;11110;52.386;16.940;2023-04-15T02:37:45;135.60;;;73.40;;
21890;SDS011;11110;52.386;16.940;2023-04-15T02:40:14;133.43;;;72.43;;
21890;SDS011;11110;52.386;16.940;2023-04-15T02:42:42;141.57;;;77.07;;
21890;SDS011;11110;52.386;16.940;2023-04-15T02:45:14;134.47;;;76.67;;
21890;SDS011;11110;52.386;16.940;2023-04-15T02:47:43;145.20;;;76.00;;
21890;SDS011;11110;52.386;16.940;2023-04-15T02:50:13;136.77;;;73.03;;
21890;SDS011;11110;52.386;16.940;2023-04-15T02:52:42;140.87;;;74.83;;
21890;SDS011;11110;52.386;16.940;2023-04-15T02:55:12;137.83;;;73.70;;
21890;SDS011;11110;52.386;16.940;2023-04-15T02:57:40;144.73;;;73.87;;
21890;SDS011;11110;52.386;16.940;2023-04-15T03:00:10;176.07;;;85.00;;
21890;SDS011;11110;52.386;16.940;2023-04-15T03:02:42;144.90;;;76.80;;
21890;SDS011;11110;52.386;16.940;2023-04-15T03:05:13;136.00;;;74.73;;
21890;SDS011;11110;52.386;16.940;2023-04-15T03:07:49;143.10;;;75.60;;
21890;SDS011;11110;52.386;16.940;2023-04-15T03:10:19;146.60;;;76.87;;
21890;SDS011;11110;52.386;16.940;2023-04-15T03:12:47;152.17;;;79.90;;
21890;SDS011;11110;52.386;16.940;2023-04-15T03:15:18;151.27;;;79.83;;
21890;SDS011;11110;52.386;16.940;2023-04-15T03:17:50;142.00;;;73.47;;
21890;SDS011;11110;52.386;16.940;2023-04-15T03:20:20;145.63;;;75.73;;
21890;SDS011;11110;52.386;16.940;2023-04-15T03:22:49;142.93;;;74.67;;
21890;SDS011;11110;52.386;16.940;2023-04-15T03:25:19;151.00;;;78.17;;
21890;SDS011;11110;52.386;16.940;2023-04-15T03:27:47;151.77;;;77.57;;
21890;SDS011;11110;52.386;16.940;2023-04-15T03:30:16;151.67;;;80.07;;
21890;SDS011;11110;52.386;16.940;2023-04-15T03:32:45;154.27;;;82.67;;
21890;SDS011;11110;52.386;16.940;2023-04-15T03:35:14;155.93;;;76.70;;
21890;SDS011;11110;52.386;16.940;2023-04-15T03:37:44;153.30;;;81.33;;
21890;SDS011;11110;52.386;16.940;2023-04-15T03:40:15;148.23;;;77.43;;
21890;SDS011;11110;52.386;16.940;2023-04-15T03:42:43;153.50;;;78.50;;
21890;SDS011;11110;52.386;16.940;2023-04-15T03:45:12;149.80;;;78.13;;
21890;SDS011;11110;52.386;16.940;2023-04-15T03:47:40;148.30;;;79.87;;
21890;SDS011;11110;52.386;16.940;2023-04-15T03:50:09;154.23;;;82.70;;
21890;SDS011;11110;52.386;16.940;2023-04-15T03:52:38;154.60;;;87.03;;
21890;SDS011;11110;52.386;16.940;2023-04-15T03:55:08;154.33;;;83.97;;
21890;SDS011;11110;52.386;16.940;2023-04-15T03:57:36;156.00;;;80.40;;
21890;SDS011;11110;52.386;16.940;2023-04-15T04:00:06;149.90;;;77.63;;
21890;SDS011;11110;52.386;16.940;2023-04-15T04:02:39;152.27;;;81.57;;
21890;SDS011;11110;52.386;16.940;2023-04-15T04:05:08;166.77;;;85.33;;
21890;SDS011;11110;52.386;16.940;2023-04-15T04:07:36;149.73;;;80.87;;
21890;SDS011;11110;52.386;16.940;2023-04-15T04:10:05;151.03;;;82.07;;
21890;SDS011;11110;52.386;16.940;2023-04-15T04:12:36;156.80;;;84.27;;
21890;SDS011;11110;52.386;16.940;2023-04-15T04:15:05;154.60;;;88.60;;
21890;SDS011;11110;52.386;16.940;2023-04-15T04:17:35;157.17;;;84.43;;
21890;SDS011;11110;52.386;16.940;2023-04-15T04:20:04;158.73;;;87.30;;
21890;SDS011;11110;52.386;16.940;2023-04-15T04:22:36;155.50;;;89.87;;
21890;SDS011;11110;52.386;16.940;2023-04-15T04:25:05;164.77;;;89.40;;
21890;SDS011;11110;52.386;16.940;2023-04-15T04:27:36;160.93;;;88.50;;
21890;SDS011;11110;52.386;16.940;2023-04-15T04:30:06;147.67;;;88.17;;
21890;SDS011;11110;52.386;16.940;2023-04-15T04:32:35;161.97;;;88.23;;
21890;SDS011;11110;52.386;16.940;2023-04-15T04:35:04;156.73;;;89.07;;
21890;SDS011;11110;52.386;16.940;2023-04-15T04:37:32;152.40;;;86.80;;
21890;SDS011;11110;52.386;16.940;2023-04-15T04:40:01;157.17;;;89.67;;
21890;SDS011;11110;52.386;16.940;2023-04-15T04:42:31;162.37;;;89.60;;
21890;SDS011;11110;52.386;16.940;2023-04-15T04:45:00;153.13;;;85.27;;
21890;SDS011;11110;52.386;16.940;2023-04-15T04:47:28;171.63;;;90.70;;
21890;SDS011;11110;52.386;16.940;2023-04-15T04:49:58;160.23;;;91.70;;
21890;SDS011;11110;52.386;16.940;2023-04-15T04:52:26;156.73;;;88.77;;
21890;SDS011;11110;52.386;16.940;2023-04-15T04:54:54;157.93;;;89.10;;
21890;SDS011;11110;52.386;16.940;2023-04-15T04:57:23;163.67;;;91.70;;
21890;SDS011;11110;52.386;16.940;2023-04-15T04:59:52;164.00;;;89.23;;
21890;SDS011;11110;52.386;16.940;2023-04-15T05:02:21;162.13;;;87.03;;
21890;SDS011;11110;52.386;16.940;2023-04-15T05:04:53;160.03;;;86.97;;
21890;SDS011;11110;52.386;16.940;2023-04-15T05:07:21;162.17;;;88.13;;
21890;SDS011;11110;52.386;16.940;2023-04-15T05:09:50;171.03;;;94.73;;
21890;SDS011;11110;52.386;16.940;2023-04-15T05:12:18;160.30;;;89.33;;
21890;SDS011;11110;52.386;16.940;2023-04-15T05:14:47;159.23;;;87.67;;
21890;SDS011;11110;52.386;16.940;2023-04-15T05:17:17;158.60;;;89.73;;
21890;SDS011;11110;52.386;16.940;2023-04-15T05:19:45;158.10;;;89.43;;
21890;SDS011;11110;52.386;16.940;2023-04-15T05:22:14;159.10;;;91.17;;
21890;SDS011;11110;52.386;16.940;2023-04-15T05:24:43;155.70;;;87.57;;
21890;SDS011;11110;52.386;16.940;2023-04-15T05:27:11;153.43;;;88.57;;
21890;SDS011;11110;52.386;16.940;2023-04-15T05:29:40;155.60;;;90.87;;
21890;SDS011;11110;52.386;16.940;2023-04-15T05:32:08;164.27;;;89.97;;
21890;SDS011;11110;52.386;16.940;2023-04-15T05:34:38;160.67;;;91.33;;
21890;SDS011;11110;52.386;16.940;2023-04-15T05:37:07;155.83;;;87.33;;
21890;SDS011;11110;52.386;16.940;2023-04-15T05:39:35;157.37;;;90.23;;
21890;SDS011;11110;52.386;16.940;2023-04-15T05:42:04;159.47;;;87.27;;
21890;SDS011;11110;52.386;16.940;2023-04-15T05:44:32;161.40;;;89.83;;
21890;SDS011;11110;52.386;16.940;2023-04-15T05:47:01;160.33;;;87.20;;
21890;SDS011;11110;52.386;16.940;2023-04-15T05:49:31;162.17;;;86.53;;
21890;SDS011;11110;52.386;16.940;2023-04-15T05:52:01;154.87;;;84.27;;
21890;SDS011;11110;52.386;16.940;2023-04-15T05:54:29;161.77;;;86.83;;
21890;SDS011;11110;52.386;16.940;2023-04-15T05:56:58;149.17;;;88.20;;
21890;SDS011;11110;52.386;16.940;2023-04-15T05:59:27;167.37;;;92.27;;
21890;SDS011;11110;52.386;16.940;2023-04-15T06:01:55;158.53;;;86.47;;
21890;SDS011;11110;52.386;16.940;2023-04-15T06:04:24;150.20;;;84.37;;
21890;SDS011;11110;52.386;16.940;2023-04-15T06:06:52;153.97;;;85.93;;
21890;SDS011;11110;52.386;16.940;2023-04-15T06:09:22;154.70;;;86.23;;
21890;SDS011;11110;52.386;16.940;2023-04-15T06:11:51;157.23;;;85.37;;
21890;SDS011;11110;52.386;16.940;2023-04-15T06:14:19;152.87;;;84.60;;
21890;SDS011;11110;52.386;16.940;2023-04-15T06:16:48;151.47;;;84.27;;
21890;SDS011;11110;52.386;16.940;2023-04-15T06:19:17;154.93;;;81.13;;
21890;SDS011;11110;52.386;16.940;2023-04-15T06:21:46;155.77;;;86.27;;
21890;SDS011;11110;52.386;16.940;2023-04-15T06:24:14;146.07;;;83.00;;
21890;SDS011;11110;52.386;16.940;2023-04-15T06:26:45;148.83;;;86.80;;
21890;SDS011;11110;52.386;16.940;2023-04-15T06:29:14;147.80;;;85.60;;
21890;SDS011;11110;52.386;16.940;2023-04-15T06:31:42;158.47;;;87.60;;
21890;SDS011;11110;52.386;16.940;2023-04-15T06:34:11;149.80;;;82.97;;
21890;SDS011;11110;52.386;16.940;2023-04-15T06:36:40;148.13;;;81.10;;
21890;SDS011;11110;52.386;16.940;2023-04-15T06:39:08;148.30;;;79.13;;
21890;SDS011;11110;52.386;16.940;2023-04-15T06:41:37;145.23;;;80.10;;
21890;SDS011;11110;52.386;16.940;2023-04-15T06:44:07;144.43;;;80.67;;
21890;SDS011;11110;52.386;16.940;2023-04-15T06:46:35;153.50;;;82.93;;
21890;SDS011;11110;52.386;16.940;2023-04-15T06:49:04;148.37;;;80.17;;
21890;SDS011;11110;52.386;16.940;2023-04-15T06:51:33;150.60;;;82.83;;
21890;SDS011;11110;52.386;16.940;2023-04-15T06:54:02;152.73;;;81.57;;
21890;SDS011;11110;52.386;16.940;2023-04-15T06:56:31;144.67;;;79.43;;
21890;SDS011;11110;52.386;16.940;2023-04-15T06:59:00;146.97;;;82.37;;
21890;SDS011;11110;52.386;16.940;2023-04-15T07:01:30;143.50;;;78.57;;
21890;SDS011;11110;52.386;16.940;2023-04-15T07:03:59;153.27;;;85.40;;
21890;SDS011;11110;52.386;16.940;2023-04-15T07:06:27;158.37;;;80.87;;
21890;SDS011;11110;52.386;16.940;2023-04-15T07:08:56;149.60;;;79.83;;
21890;SDS011;11110;52.386;16.940;2023-04-15T07:11:25;155.37;;;80.33;;
21890;SDS011;11110;52.386;16.940;2023-04-15T07:13:54;157.90;;;77.13;;
21890;SDS011;11110;52.386;16.940;2023-04-15T07:16:22;149.60;;;75.23;;
21890;SDS011;11110;52.386;16.940;2023-04-15T07:18:55;148.07;;;75.83;;
21890;SDS011;11110;52.386;16.940;2023-04-15T07:21:24;155.33;;;80.03;;
21890;SDS011;11110;52.386;16.940;2023-04-15T07:23:53;149.50;;;75.97;;
21890;SDS011;11110;52.386;16.940;2023-04-15T07:26:21;152.50;;;78.23;;
21890;SDS011;11110;52.386;16.940;2023-04-15T07:28:50;151.87;;;78.67;;
21890;SDS011;11110;52.386;16.940;2023-04-15T07:31:18;157.23;;;79.50;;
21890;SDS011;11110;52.386;16.940;2023-04-15T07:33:47;153.63;;;80.23;;
21890;SDS011;11110;52.386;16.940;2023-04-15T07:36:16;146.70;;;77.10;;
21890;SDS011;11110;52.386;16.940;2023-04-15T07:38:45;155.33;;;80.70;;
21890;SDS011;11110;52.386;16.940;2023-04-15T07:41:13;150.73;;;76.13;;
21890;SDS011;11110;52.386;16.940;2023-04-15T07:43:42;144.40;;;77.37;;
21890;SDS011;11110;52.386;16.940;2023-04-15T07:46:10;163.27;;;79.13;;
21890;SDS011;11110;52.386;16.940;2023-04-15T07:48:39;142.63;;;74.43;;
21890;SDS011;11110;52.386;16.940;2023-04-15T07:51:08;144.97;;;74.20;;
21890;SDS011;11110;52.386;16.940;2023-04-15T07:53:40;156.70;;;77.53;;
21890;SDS011;11110;52.386;16.940;2023-04-15T07:56:08;146.47;;;74.83;;
21890;SDS011;11110;52.386;16.940;2023-04-15T07:58:37;141.00;;;73.77;;
21890;SDS011;11110;52.386;16.940;2023-04-15T08:01:05;143.70;;;73.93;;
21890;SDS011;11110;52.386;16.940;2023-04-15T08:03:34;150.77;;;77.43;;
21890;SDS011;11110;52.386;16.940;2023-04-15T08:06:03;149.33;;;76.10;;
21890;SDS011;11110;52.386;16.940;2023-04-15T08:08:32;147.30;;;75.00;;
21890;SDS011;11110;52.386;16.940;2023-04-15T08:11:02;148.90;;;77.07;;
21890;SDS011;11110;52.386;16.940;2023-04-15T08:13:31;153.37;;;78.00;;
21890;SDS011;11110;52.386;16.940;2023-04-15T08:18:51;148.50;;;76.10;;
21890;SDS011;11110;52.386;16.940;2023-04-15T08:21:22;150.97;;;78.23;;
21890;SDS011;11110;52.386;16.940;2023-04-15T08:23:51;142.20;;;73.73;;
21890;SDS011;11110;52.386;16.940;2023-04-15T08:26:21;142.03;;;76.40;;
21890;SDS011;11110;52.386;16.940;2023-04-15T08:28:50;151.57;;;78.13;;
21890;SDS011;11110;52.386;16.940;2023-04-15T08:31:18;138.73;;;73.93;;
21890;SDS011;11110;52.386;16.940;2023-04-15T08:33:47;145.40;;;73.40;;
21890;SDS011;11110;52.386;16.940;2023-04-15T08:36:18;141.47;;;74.40;;
21890;SDS011;11110;52.386;16.940;2023-04-15T08:38:47;138.73;;;71.20;;
21890;SDS011;11110;52.386;16.940;2023-04-15T08:41:17;139.83;;;71.07;;
21890;SDS011;11110;52.386;16.940;2023-04-15T08:43:52;148.13;;;72.63;;
21890;SDS011;11110;52.386;16.940;2023-04-15T08:46:24;135.17;;;71.57;;
21890;SDS011;11110;52.386;16.940;2023-04-15T08:48:53;144.60;;;76.93;;
21890;SDS011;11110;52.386;16.940;2023-04-15T08:51:24;143.47;;;74.27;;
21890;SDS011;11110;52.386;16.940;2023-04-15T08:53:53;142.47;;;72.73;;
21890;SDS011;11110;52.386;16.940;2023-04-15T08:56:23;140.97;;;74.27;;
21890;SDS011;11110;52.386;16.940;2023-04-15T08:58:54;141.73;;;72.07;;
21890;SDS011;11110;52.386;16.940;2023-04-15T09:01:22;144.63;;;72.83;;
21890;SDS011;11110;52.386;16.940;2023-04-15T09:03:52;140.73;;;73.50;;
21890;SDS011;11110;52.386;16.940;2023-04-15T09:06:21;149.60;;;73.67;;
21890;SDS011;11110;52.386;16.940;2023-04-15T09:08:50;139.67;;;71.20;;
21890;SDS011;11110;52.386;16.940;2023-04-15T09:11:20;142.10;;;72.03;;
21890;SDS011;11110;52.386;16.940;2023-04-15T09:13:49;144.00;;;72.00;;
21890;SDS011;11110;52.386;16.940;2023-04-15T09:16:19;142.30;;;74.37;;
21890;SDS011;11110;52.386;16.940;2023-04-15T09:18:47;138.43;;;72.77;;
21890;SDS011;11110;52.386;16.940;2023-04-15T09:21:16;141.20;;;73.33;;
21890;SDS011;11110;52.386;16.940;2023-04-15T09:23:55;146.97;;;72.90;;
21890;SDS011;11110;52.386;16.940;2023-04-15T09:26:34;143.80;;;72.40;;
21890;SDS011;11110;52.386;16.940;2023-04-15T09:29:04;148.93;;;73.10;;
21890;SDS011;11110;52.386;16.940;2023-04-15T09:31:36;143.70;;;72.50;;
21890;SDS011;11110;52.386;16.940;2023-04-15T09:34:05;140.73;;;72.40;;
21890;SDS011;11110;52.386;16.940;2023-04-15T09:39:26;143.67;;;71.50;;
21890;SDS011;11110;52.386;16.940;2023-04-15T09:42:04;144.60;;;71.20;;
21890;SDS011;11110;52.386;16.940;2023-04-15T09:44:34;146.43;;;72.83;;
21890;SDS011;11110;52.386;16.940;2023-04-15T09:47:04;143.23;;;71.50;;
21890;SDS011;11110;52.386;16.940;2023-04-15T09:49:33;141.00;;;71.27;;
21890;SDS011;11110;52.386;16.940;2023-04-15T09:52:01;140.37;;;71.07;;
21890;SDS011;11110;52.386;16.940;2023-04-15T09:54:33;136.07;;;73.43;;
21890;SDS011;11110;52.386;16.940;2023-04-15T09:57:05;143.80;;;72.97;;
21890;SDS011;11110;52.386;16.940;2023-04-15T09:59:35;136.00;;;72.03;;
21890;SDS011;11110;52.386;16.940;2023-04-15T10:02:05;140.30;;;71.77;;
21890;SDS011;11110;52.386;16.940;2023-04-15T10:04:35;142.03;;;71.60;;
21890;SDS011;11110;52.386;16.940;2023-04-15T10:07:07;133.93;;;71.53;;
21890;SDS011;11110;52.386;16.940;2023-04-15T10:09:36;138.13;;;73.90;;
21890;SDS011;11110;52.386;16.940;2023-04-15T10:12:05;141.83;;;71.37;;
21890;SDS011;11110;52.386;16.940;2023-04-15T10:14:35;135.87;;;77.57;;
21890;SDS011;11110;52.386;16.940;2023-04-15T10:17:06;151.60;;;80.13;;
21890;SDS011;11110;52.386;16.940;2023-04-15T10:19:38;137.73;;;74.60;;
21890;SDS011;11110;52.386;16.940;2023-04-15T10:22:07;139.43;;;73.33;;
21890;SDS011;11110;52.386;16.940;2023-04-15T10:24:37;135.50;;;71.07;;
21890;SDS011;11110;52.386;16.940;2023-04-15T10:27:06;150.23;;;74.80;;
21890;SDS011;11110;52.386;16.940;2023-04-15T10:29:35;135.57;;;72.00;;
21890;SDS011;11110;52.386;16.940;2023-04-15T10:32:04;139.23;;;74.83;;
21890;SDS011;11110;52.386;16.940;2023-04-15T10:34:35;135.47;;;72.63;;
21890;SDS011;11110;52.386;16.940;2023-04-15T10:37:04;136.67;;;71.87;;
21890;SDS011;11110;52.386;16.940;2023-04-15T10:39:37;151.03;;;80.13;;
21890;SDS011;11110;52.386;16.940;2023-04-15T10:42:07;141.63;;;75.23;;
21890;SDS011;11110;52.386;16.940;2023-04-15T10:44:37;144.43;;;76.73;;
21890;SDS011;11110;52.386;16.940;2023-04-15T10:47:13;142.63;;;73.20;;
21890;SDS011;11110;52.386;16.940;2023-04-15T10:49:46;137.90;;;70.17;;
21890;SDS011;11110;52.386;16.940;2023-04-15T10:52:16;140.03;;;72.10;;
21890;SDS011;11110;52.386;16.940;2023-04-15T10:54:50;137.77;;;70.53;;
21890;SDS011;11110;52.386;16.940;2023-04-15T10:57:33;134.00;;;69.83;;
21890;SDS011;11110;52.386;16.940;2023-04-15T11:00:09;138.63;;;70.60;;
21890;SDS011;11110;52.386;16.940;2023-04-15T11:02:41;141.20;;;75.13;;
21890;SDS011;11110;52.386;16.940;2023-04-15T11:05:13;145.47;;;76.80;;
21890;SDS011;11110;52.386;16.940;2023-04-15T11:07:50;141.77;;;72.90;;
21890;SDS011;11110;52.386;16.940;2023-04-15T11:13:21;133.63;;;68.53;;
21890;SDS011;11110;52.386;16.940;2023-04-15T11:15:58;136.37;;;69.10;;
21890;SDS011;11110;52.386;16.940;2023-04-15T11:18:28;140.27;;;68.60;;
21890;SDS011;11110;52.386;16.940;2023-04-15T11:21:01;137.07;;;68.17;;
21890;SDS011;11110;52.386;16.940;2023-04-15T11:23:34;134.07;;;67.63;;
21890;SDS011;11110;52.386;16.940;2023-04-15T11:26:06;140.87;;;69.13;;
21890;SDS011;11110;52.386;16.940;2023-04-15T11:28:38;128.40;;;67.03;;
21890;SDS011;11110;52.386;16.940;2023-04-15T11:31:08;139.70;;;69.07;;
21890;SDS011;11110;52.386;16.940;2023-04-15T11:33:43;136.70;;;70.87;;
21890;SDS011;11110;52.386;16.940;2023-04-15T11:36:15;138.23;;;71.33;;
21890;SDS011;11110;52.386;16.940;2023-04-15T11:38:44;134.00;;;67.93;;
21890;SDS011;11110;52.386;16.940;2023-04-15T11:41:14;137.77;;;68.80;;
21890;SDS011;11110;52.386;16.940;2023-04-15T11:43:46;128.57;;;67.30;;
21890;SDS011;11110;52.386;16.940;2023-04-15T11:46:15;141.83;;;70.07;;
21890;SDS011;11110;52.386;16.940;2023-04-15T11:48:44;139.93;;;68.60;;
21890;SDS011;11110;52.386;16.940;2023-04-15T11:51:15;142.43;;;69.80;;
21890;SDS011;11110;52.386;16.940;2023-04-15T11:53:44;141.60;;;69.30;;
21890;SDS011;11110;52.386;16.940;2023-04-15T11:56:17;138.17;;;71.67;;
21890;SDS011;11110;52.386;16.940;2023-04-15T11:58:47;147.43;;;74.10;;
21890;SDS011;11110;52.386;16.940;2023-04-15T12:01:18;138.27;;;70.23;;
21890;SDS011;11110;52.386;16.940;2023-04-15T12:03:47;132.27;;;68.07;;
21890;SDS011;11110;52.386;16.940;2023-04-15T12:06:18;136.60;;;68.60;;
21890;SDS011;11110;52.386;16.940;2023-04-15T12:08:48;132.93;;;67.10;;
21890;SDS011;11110;52.386;16.940;2023-04-15T12:11:18;130.20;;;66.93;;
21890;SDS011;11110;52.386;16.940;2023-04-15T12:13:48;133.43;;;67.00;;
21890;SDS011;11110;52.386;16.940;2023-04-15T12:16:17;136.97;;;69.90;;
21890;SDS011;11110;52.386;16.940;2023-04-15T12:18:46;134.47;;;68.13;;
21890;SDS011;11110;52.386;16.940;2023-04-15T12:21:19;134.23;;;68.77;;
21890;SDS011;11110;52.386;16.940;2023-04-15T12:23:48;137.07;;;68.47;;
21890;SDS011;11110;52.386;16.940;2023-04-15T12:26:17;135.23;;;67.80;;
21890;SDS011;11110;52.386;16.940;2023-04-15T12:28:54;138.97;;;73.33;;
21890;SDS011;11110;52.386;16.940;2023-04-15T12:31:23;131.93;;;68.20;;
21890;SDS011;11110;52.386;16.940;2023-04-15T12:33:53;136.43;;;69.03;;
21890;SDS011;11110;52.386;16.940;2023-04-15T12:36:23;139.70;;;69.13;;
21890;SDS011;11110;52.386;16.940;2023-04-15T12:38:52;135.97;;;74.07;;
21890;SDS011;11110;52.386;16.940;2023-04-15T12:41:21;132.90;;;71.80;;
21890;SDS011;11110;52.386;16.940;2023-04-15T12:43:50;134.43;;;74.03;;
21890;SDS011;11110;52.386;16.940;2023-04-15T12:46:19;138.30;;;80.77;;
21890;SDS011;11110;52.386;16.940;2023-04-15T12:48:47;135.87;;;76.83;;
21890;SDS011;11110;52.386;16.940;2023-04-15T12:51:17;131.87;;;75.77;;
21890;SDS011;11110;52.386;16.940;2023-04-15T12:53:48;137.50;;;76.23;;
21890;SDS011;11110;52.386;16.940;2023-04-15T12:56:16;135.93;;;77.97;;
21890;SDS011;11110;52.386;16.940;2023-04-15T12:58:45;137.47;;;77.87;;
21890;SDS011;11110;52.386;16.940;2023-04-15T13:01:14;141.47;;;79.97;;
21890;SDS011;11110;52.386;16.940;2023-04-15T13:03:42;136.77;;;78.23;;
21890;SDS011;11110;52.386;16.940;2023-04-15T13:06:11;131.33;;;76.27;;
21890;SDS011;11110;52.386;16.940;2023-04-15T13:08:39;138.97;;;74.93;;
21890;SDS011;11110;52.386;16.940;2023-04-15T13:11:24;140.33;;;74.93;;
21890;SDS011;11110;52.386;16.940;2023-04-15T13:13:53;132.43;;;73.73;;
21890;SDS011;11110;52.386;16.940;2023-04-15T13:16:22;139.40;;;76.90;;
21890;SDS011;11110;52.386;16.940;2023-04-15T13:18:51;131.97;;;73.60;;
21890;SDS011;11110;52.386;16.940;2023-04-15T13:21:19;136.17;;;72.80;;
21890;SDS011;11110;52.386;16.940;2023-04-15T13:23:48;138.40;;;70.53;;
21890;SDS011;11110;52.386;16.940;2023-04-15T13:26:17;144.40;;;75.30;;
21890;SDS011;11110;52.386;16.940;2023-04-15T13:28:47;139.70;;;70.73;;
21890;SDS011;11110;52.386;16.940;2023-04-15T13:31:15;146.33;;;74.00;;
21890;SDS011;11110;52.386;16.940;2023-04-15T13:33:44;138.23;;;70.83;;
21890;SDS011;11110;52.386;16.940;2023-04-15T13:36:13;137.03;;;69.83;;
21890;SDS011;11110;52.386;16.940;2023-04-15T13:38:41;138.80;;;70.03;;
21890;SDS011;11110;52.386;16.940;2023-04-15T13:41:10;134.23;;;68.40;;
21890;SDS011;11110;52.386;16.940;2023-04-15T13:43:38;130.23;;;66.67;;
21890;SDS011;11110;52.386;16.940;2023-04-15T13:46:08;137.60;;;68.90;;
21890;SDS011;11110;52.386;16.940;2023-04-15T13:48:37;133.23;;;68.90;;
21890;SDS011;11110;52.386;16.940;2023-04-15T13:51:05;135.60;;;71.17;;
21890;SDS011;11110;52.386;16.940;2023-04-15T13:53:34;136.80;;;69.33;;
21890;SDS011;11110;52.386;16.940;2023-04-15T13:56:05;142.70;;;72.23;;
21890;SDS011;11110;52.386;16.940;2023-04-15T13:58:34;137.90;;;72.93;;
21890;SDS011;11110;52.386;16.940;2023-04-15T14:01:04;148.63;;;73.87;;
21890;SDS011;11110;52.386;16.940;2023-04-15T14:03:34;137.03;;;69.83;;
21890;SDS011;11110;52.386;16.940;2023-04-15T14:06:04;138.43;;;70.00;;
21890;SDS011;11110;52.386;16.940;2023-04-15T14:08:33;150.07;;;71.53;;
21890;SDS011;11110;52.386;16.940;2023-04-15T14:11:01;139.67;;;69.07;;
21890;SDS011;11110;52.386;16.940;2023-04-15T14:13:30;150.50;;;71.30;;
21890;SDS011;11110;52.386;16.940;2023-04-15T14:15:58;135.40;;;68.67;;
21890;SDS011;11110;52.386;16.940;2023-04-15T14:18:27;135.53;;;69.30;;